Tiempo atmosférico en la estación meteorológica de Coll De Nargó, Lleida (603 m.)

Fecha
DESCASC
Temp. máxima en grados centígrados (hora)
DESCASC
Temp. mínima en grados centígrados (hora)
DESCASC
Temp. media en grados centígrados
DESCASC
Racha de viento máxima en m/sg (hora)
DESCASC
Velocidad máxima media en intervalos de 10 minutos(hora)
DESCASC
Precipitaciones diarias en mm
DESCASC
Precipitaciones de 00:00 a 06:00 en mm
DESCASC
Precipitaciones de 06:00 a 12:00 en mm
DESCASC
Precipitaciones de 12:00 a 18:00 en mm
DESCASC
Precipitaciones de 18:00 a 24:00 en mm
DESCASC
23-11-2017 18.3 (14:40) -0.6 (05:40) 8.8 6.94 (16:20) 5 (16:20) 0 0 0 0 0
22-11-2017 19.3 (15:00) -1.3 (06:30) 9 10.28 (16:30) 7.5 (16:40) 0 0 0 0 0
21-11-2017 18 (13:40) -0.9 (08:00) 8.6 8.33 (15:30) 6.11 (15:30) 0 0 0 0 0
20-11-2017 15.9 (14:00) -2.1 (05:20) 6.9 12.22 (15:50) 9.72 (16:20) 0 0 0 0 0
19-11-2017 14.1 (12:40) -2.1 (-00:0) 6 11.67 (16:10) 9.17 (16:20) 0 0 0 0 0
18-11-2017 14.7 (14:10) 0.6 (00:00) 7.6 13.61 (14:30) 11.67 (14:30) 0 0 0 0 0
17-11-2017 16.4 (13:30) -2.6 (-00:0) 6.9 11.39 (15:00) 9.44 (14:40) 0 0 0 0 0
16-11-2017 16.7 (14:20) -2.7 (-00:0) 7 10.83 (15:20) 8.89 (16:10) 0 0 0 0 0
15-11-2017 14.3 (13:00) -3.5 (-00:0) 5.4 14.17 (16:00) 11.11 (16:00) 0 0 0 0 0
14-11-2017 10.5 (14:30) -2.1 (-00:0) 4.2 17.5 (00:10) 13.89 (15:50) 0 0 0 0 0
13-11-2017 10.4 (03:50) 4.8 (00:00) 7.6 25.28 (14:40) 14.72 (14:40) 0 0 0 0 0
12-11-2017 11.4 (15:40) 0.4 (00:00) 5.9 17.78 (13:50) 15 (13:50) 0 0 0 0 0
11-11-2017 11.2 (10:50) 5 (00:00) 8.1 12.78 (14:20) 10.28 (14:40) 0 0 0 0 0
10-11-2017 15.4 (12:40) 2.7 (00:00) 9 13.89 (15:50) 11.67 (15:50) 0 0 0 0 0
09-11-2017 11 (16:20) 0 (00:00) 5.5 14.17 (17:30) 8.89 (13:40) 0 0 0 0 0
08-11-2017 10.2 (12:10) -2.5 (-00:0) 3.8 14.17 (13:40) 11.67 (13:40) 0.6 0 0 0.6 0
07-11-2017 12.1 (11:40) -1.6 (-00:0) 5.3 15.28 (13:20) 13.33 (12:40) 0 0 0 0 0
06-11-2017 10.6 (12:50) 5 (00:00) 7.8 25.28 (15:20) 14.72 (05:30) 0 0 0 0 0
05-11-2017 16.6 (14:00) 6.1 (00:00) 11.4 15.83 (12:40) 9.17 (10:00) 0.2 0 0.2 0 0
04-11-2017 11.3 (13:00) 7.1 (00:00) 9.2 5.28 (16:00) 2.78 (16:00) 19.2 0 5.6 13.4 0.2
03-11-2017 21.6 (14:10) 6.1 (00:00) 13.9 8.33 (14:30) 6.39 (14:40) 0.2 0 0.2 0 0
02-11-2017 18.8 (14:20) 4.4 (06:50) 11.6 6.39 (16:00) 4.17 (16:10) 0 0 0 0 0
01-11-2017 19.3 (13:30) 2.6 (00:00) 10.9 10.56 (14:40) 7.78 (14:40) 0 0 0 0 0
31-10-2017 16.9 (14:40) 4.4 (00:00) 10.6 12.22 (13:20) 10.28 (13:20) 0 0 0 0 0
30-10-2017 15.2 (15:50) 3.7 (00:00) 9.4 15.83 (13:40) 12.5 (13:50) 0 0 0 0 0
29-10-2017 16.3 (15:50) 2.4 (00:00) 9.3 14.17 (15:00) 11.11 (14:50) 0 0 0 0 0
28-10-2017 19 (15:40) 7.9 (00:00) 13.5 14.72 (15:50) 12.22 (14:50) 0 0 0 0 0
27-10-2017 21.7 (12:40) 7.1 (00:00) 14.4 14.44 (16:20) 11.39 (16:00) 0 0 0 0 0
26-10-2017 26.2 (14:30) 7.4 (00:00) 16.8 13.33 (17:00) 10.56 (17:00) 0 0 0 0 0
25-10-2017 26.7 (15:20) 7.2 (00:00) 17 10.28 (16:10) 8.33 (16:40) 0 0 0 0 0

Gráficas

Temp. máximas Temp. mínimas Temp. medias Precipitaciones Rachas de viento máximas Velocidades máximas media en intervalos de 10 minutos

Datos horarios

Fecha y hora oficial Temperatura (ºC) Velocidad del viento (km/h) Dirección del viento Racha (km/h) Dirección de racha Precipitación (mm) Presión (hPa) Tendencia (hPa) Humedad (%)
2017-11-23 23:00:00 3.7 6 Norte 8 Nordeste 0 -- -- 81
2017-11-23 22:00:00 4.5 5 Nordeste 8 Norte 0 -- -- 79
2017-11-23 21:00:00 5.3 5 Norte 7 Norte 0 -- -- 76
2017-11-23 20:00:00 7.1 4 Norte 6 Norte 0 -- -- 69
2017-11-23 19:00:00 9 2 Norte 6 Sudoeste 0 -- -- 61
2017-11-23 18:00:00 11.8 2 Sudoeste 20 Sur 0 -- -- 52
2017-11-23 17:00:00 13.5 17 Sur 25 Sur 0 -- -- 47
2017-11-23 16:00:00 16.3 17 Sur 22 Sur 0 -- -- 41
2017-11-23 15:00:00 16.9 4 Nordeste 9 Sudeste 0 -- -- 33
2017-11-23 14:00:00 16.7 2 Nordeste 10 Norte 0 -- -- 33
2017-11-23 13:00:00 12.5 5 Norte 12 Norte 0 -- -- 43
2017-11-23 12:00:00 10.4 6 Norte 11 Norte 0 -- -- 48
2017-11-23 11:00:00 7.4 6 Nordeste 10 Norte 0 -- -- 55
2017-11-23 10:00:00 2.4 6 Norte 11 Norte 0 -- -- 78
2017-11-23 09:00:00 -0.1 6 Norte 13 Norte 0 -- -- 88
2017-11-23 08:00:00 0.7 5 Norte 13 Norte 0 -- -- 81
2017-11-23 07:00:00 0.6 12 Norte 17 Norte 0 -- -- 82
2017-11-23 06:00:00 -0.3 8 Norte 12 Nordeste 0 -- -- 87
2017-11-23 05:00:00 0.6 4 Norte 11 Norte 0 -- -- 82
2017-11-23 04:00:00 -0.4 4 Nordeste 12 Norte 0 -- -- 90
2017-11-23 03:00:00 -0.4 7 Norte 10 Norte 0 -- -- 88
2017-11-23 02:00:00 0.8 5 Norte 10 Norte 0 -- -- 85
2017-11-23 01:00:00 1.5 5 Norte 12 Norte 0 -- -- 81
2017-11-23 00:00:00 0.9 6 Nordeste 13 Norte 0 -- -- 87
2017-11-22 23:00:00 1.8 6 Norte 10 Norte 0 -- -- 85
2017-11-22 22:00:00 2.8 6 Norte 9 Norte 0 -- -- 81
2017-11-22 21:00:00 2.9 8 Norte 10 Norte 0 -- -- 82
2017-11-22 20:00:00 4.7 5 Norte 6 Nordeste 0 -- -- 76
2017-11-22 19:00:00 7.5 3 Nordeste 5 Nordeste 0 -- -- 65
2017-11-22 18:00:00 9.3 4 Nordeste 25 Sur 0 -- -- 58
2017-11-22 17:00:00 13.1 22 Sur 37 Sur 0 -- -- 43
2017-11-22 16:00:00 16.7 19 Sudeste 32 Sur 0 -- -- 35
2017-11-22 15:00:00 19.3 3 Oeste 8 Sudeste 0 -- -- 32
2017-11-22 14:00:00 16.8 0 Calma 6 Norte 0 -- -- 34
2017-11-22 13:00:00 13.1 4 Norte 8 Norte 0 -- -- 43
2017-11-22 12:00:00 10.3 4 Nordeste 9 Norte 0 -- -- 51
2017-11-22 11:00:00 7.4 5 Norte 8 Norte 0 -- -- 60
2017-11-22 10:00:00 0.8 5 Norte 9 Norte 0 -- -- 87
2017-11-22 09:00:00 -0.7 5 Norte 8 Norte 0 -- -- 89
2017-11-22 08:00:00 -1 5 Nordeste 10 Norte 0 -- -- 94
2017-11-22 07:00:00 0.5 5 Noroeste 10 Noroeste 0 -- -- 93
2017-11-22 06:00:00 -0.9 5 Norte 11 Norte 0 -- -- 94
2017-11-22 05:00:00 0.1 4 Norte 9 Norte 0 -- -- 98
2017-11-22 04:00:00 1.2 5 Norte 9 Norte 0 -- -- 90
2017-11-22 03:00:00 1.4 7 Norte 10 Norte 0 -- -- 94
2017-11-22 02:00:00 1.1 8 Norte 10 Norte 0 -- -- 92
2017-11-22 01:00:00 1.5 5 Norte 8 Norte 0 -- -- 93
2017-11-22 00:00:00 1.4 5 Norte 9 Norte 0 -- -- 92
2017-11-21 23:00:00 2.5 5 Norte 9 Norte 0 -- -- 91
2017-11-21 22:00:00 3.6 5 Norte 9 Norte 0 -- -- 86
2017-11-21 21:00:00 3.7 7 Norte 9 Norte 0 -- -- 87
2017-11-21 20:00:00 5.3 5 Norte 7 Norte 0 -- -- 82
2017-11-21 19:00:00 7.2 4 Nordeste 5 Nordeste 0 -- -- 74
2017-11-21 18:00:00 10.3 0 Calma 18 Sur 0 -- -- 63
2017-11-21 17:00:00 12.1 15 Sur 30 Sur 0 -- -- 57
2017-11-21 16:00:00 15.8 22 Sur 30 Sur 0 -- -- 46
2017-11-21 15:00:00 17.5 19 Sudeste 27 Sudeste 0 -- -- 40
2017-11-21 14:00:00 17.2 5 Sur 10 Sur 0 -- -- 36
2017-11-21 13:00:00 14.3 4 Norte 8 Norte 0 -- -- 42
2017-11-21 12:00:00 11.6 4 Nordeste 9 Norte 0 -- -- 51
2017-11-21 11:00:00 7.9 6 Norte 11 Norte 0 -- -- 67
2017-11-21 10:00:00 1.8 3 Norte 8 Norte 0 -- -- 89
2017-11-21 09:00:00 0.4 5 Norte 10 Norte 0 -- -- 96
2017-11-21 08:00:00 -0.9 6 Nordeste 8 Norte 0 -- -- 98
2017-11-21 07:00:00 0.1 3 Norte 11 Norte 0 -- -- 96
2017-11-21 06:00:00 0.5 5 Norte 8 Norte 0 -- -- 96
2017-11-21 05:00:00 0.1 6 Norte 10 Norte 0 -- -- 97
2017-11-21 04:00:00 0.3 6 Norte 10 Norte 0 -- -- 100
2017-11-21 03:00:00 0.6 6 Norte 9 Norte 0 -- -- 96
2017-11-21 02:00:00 0.8 6 Norte 9 Norte 0 -- -- 98
2017-11-21 01:00:00 1.4 4 Norte 9 Nordeste 0 -- -- 98
2017-11-21 00:00:00 2.2 6 Norte 9 Norte 0 -- -- 95
2017-11-20 23:00:00 2.6 5 Nordeste 10 Norte 0 -- -- 92
2017-11-20 22:00:00 2.9 6 Norte 9 Norte 0 -- -- 91
2017-11-20 21:00:00 4.2 8 Nordeste 9 Nordeste 0 -- -- 85
2017-11-20 20:00:00 5.7 4 Nordeste 5 Norte 0 -- -- 80
2017-11-20 19:00:00 7.9 4 Sur 24 Sur 0 -- -- 72
2017-11-20 18:00:00 10.1 20 Sur 37 Sur 0 -- -- 64
2017-11-20 17:00:00 11.8 27 Sur 44 Sur 0 -- -- 56
2017-11-20 16:00:00 14.2 33 Sur 44 Sur 0 -- -- 49
2017-11-20 15:00:00 15.6 26 Sur 36 Sur 0 -- -- 44
2017-11-20 14:00:00 15.9 22 Sur 30 Sur 0 -- -- 41
2017-11-20 13:00:00 14.8 15 Sur 20 Sur 0 -- -- 41
2017-11-20 12:00:00 13 0 Calma 7 Norte 0 -- -- 39
2017-11-20 11:00:00 8.4 5 Norte 8 Norte 0 -- -- 52
2017-11-20 10:00:00 1.4 5 Norte 10 Norte 0 -- -- 76
2017-11-20 09:00:00 -1.1 4 Norte 8 Norte 0 -- -- 89
2017-11-20 08:00:00 -1.5 4 Norte 7 Norte 0 -- -- 90
2017-11-20 07:00:00 -0.2 4 Norte 12 Norte 0 -- -- 80
2017-11-20 06:00:00 -1.2 8 Norte 11 Norte 0 -- -- 89
2017-11-20 05:00:00 -1.7 7 Norte 9 Norte 0 -- -- 91
2017-11-20 04:00:00 -0.7 6 Norte 9 Norte 0 -- -- 89
2017-11-20 03:00:00 -0.7 5 Norte 10 Nordeste 0 -- -- 89
2017-11-20 02:00:00 -0.5 6 Norte 11 Norte 0 -- -- 91
2017-11-20 01:00:00 1.3 0 Calma 7 Nordeste 0 -- -- 81
2017-11-20 00:00:00 0.6 6 Norte 8 Norte 0 -- -- 86
2017-11-19 23:00:00 0.8 5 Norte 9 Norte 0 -- -- 87
2017-11-19 22:00:00 1.1 8 Norte 10 Nordeste 0 -- -- 87
2017-11-19 21:00:00 2.4 6 Norte 8 Norte 0 -- -- 83
2017-11-19 20:00:00 4.1 3 Norte 5 Norte 0 -- -- 76
2017-11-19 19:00:00 6.3 4 Sur 19 Sur 0 -- -- 75
2017-11-19 18:00:00 8.1 16 Sur 34 Sur 0 -- -- 70
2017-11-19 17:00:00 9.8 28 Sur 42 Sur 0 -- -- 62
2017-11-19 16:00:00 12.4 30 Sur 40 Sur 0 -- -- 51
2017-11-19 15:00:00 13.5 30 Sur 39 Sur 0 -- -- 42
2017-11-19 14:00:00 13.5 24 Sur 31 Sur 0 -- -- 38
2017-11-19 13:00:00 13.3 14 Sur 19 Sur 0 -- -- 32
2017-11-19 12:00:00 11.1 5 Nordeste 9 Este 0 -- -- 30
2017-11-19 11:00:00 8 5 Nordeste 8 Este 0 -- -- 36
2017-11-19 10:00:00 1.5 3 Norte 10 Norte 0 -- -- 53
2017-11-19 09:00:00 0.7 3 Norte 6 Norte 0 -- -- 59
2017-11-19 08:00:00 -2 5 Norte 10 Norte 0 -- -- 84
2017-11-19 07:00:00 -1.6 4 Norte 8 Norte 0 -- -- 84
2017-11-19 06:00:00 -0.7 4 Norte 9 Norte 0 -- -- 79
2017-11-19 05:00:00 -1.6 6 Norte 8 Norte 0 -- -- 90
2017-11-19 04:00:00 -0.4 4 Norte 8 Norte 0 -- -- 87
2017-11-19 03:00:00 0.2 3 Nordeste 5 Nordeste 0 -- -- 88
2017-11-19 02:00:00 1.1 5 Norte 9 Nordeste 0 -- -- 82
2017-11-19 01:00:00 0 5 Norte 9 Norte 0 -- -- 96
2017-11-19 00:00:00 0.6 8 Norte 10 Norte 0 -- -- 96
2017-11-18 23:00:00 1.2 7 Norte 9 Norte 0 -- -- 95
2017-11-18 22:00:00 2.3 6 Norte 11 Noroeste 0 -- -- 89
2017-11-18 21:00:00 3.1 5 Norte 6 Norte 0 -- -- 87
2017-11-18 20:00:00 5.3 0 Calma 13 Sudoeste 0 -- -- 79
2017-11-18 19:00:00 7.6 9 Sur 30 Sur 0 -- -- 72
2017-11-18 18:00:00 9.6 22 Sur 37 Sudeste 0 -- -- 63
2017-11-18 17:00:00 11.2 31 Sur 41 Sur 0 -- -- 56
2017-11-18 16:00:00 13.6 33 Sur 43 Sur 0 -- -- 47
2017-11-18 15:00:00 14.6 37 Sur 49 Sur 0 -- -- 45
2017-11-18 14:00:00 14.6 38 Sur 46 Sur 0 -- -- 46
2017-11-18 13:00:00 13.5 38 Sur 43 Sur 0 -- -- 47
2017-11-18 12:00:00 13.6 13 Sur 16 Sur 0 -- -- 46
2017-11-18 11:00:00 11.9 3 Nordeste 8 Nordeste 0 -- -- 48
2017-11-18 10:00:00 5 4 Norte 10 Noroeste 0 -- -- 70
2017-11-18 09:00:00 3 4 Norte 9 Nordeste 0 -- -- 79
2017-11-18 08:00:00 3.3 2 Noroeste 10 Norte 0 -- -- 78
2017-11-18 07:00:00 4 5 Norte 12 Nordeste 0 -- -- 74
2017-11-18 06:00:00 4 4 Norte 9 Norte 0 -- -- 76
2017-11-18 05:00:00 3.4 5 Norte 9 Norte 0 -- -- 79
2017-11-18 04:00:00 5.8 5 Norte 7 Norte 0 -- -- 69
2017-11-18 03:00:00 7.4 2 Norte 6 Norte 0 -- -- 62
2017-11-18 02:00:00 7.1 3 Norte 9 Nordeste 0 -- -- 64
2017-11-18 01:00:00 6.3 5 Norte 8 Norte 0 -- -- 70
2017-11-18 00:00:00 5.8 3 Norte 9 Nordeste 0 -- -- 74
2017-11-17 23:00:00 5.8 0 Calma 8 Norte 0 -- -- 74
2017-11-17 22:00:00 3.8 7 Norte 12 Norte 0 -- -- 84
2017-11-17 21:00:00 4.2 6 Norte 8 Nordeste 0 -- -- 81
2017-11-17 20:00:00 5.4 5 Nordeste 7 Nordeste 0 -- -- 77
2017-11-17 19:00:00 7.7 3 Norte 14 Sur 0 -- -- 67
2017-11-17 18:00:00 9.7 13 Sur 29 Sur 0 -- -- 57
2017-11-17 17:00:00 11.6 22 Sur 38 Sur 0 -- -- 50
2017-11-17 16:00:00 14.3 30 Sur 41 Sur 0 -- -- 43
2017-11-17 15:00:00 15.4 33 Sur 41 Sur 0 -- -- 40
2017-11-17 14:00:00 16 27 Sur 36 Sur 0 -- -- 37
2017-11-17 13:00:00 13.3 9 Sur 13 Sur 0 -- -- 39
2017-11-17 12:00:00 13.7 4 Norte 10 Norte 0 -- -- 34
2017-11-17 11:00:00 10.2 4 Norte 8 Norte 0 -- -- 45
2017-11-17 10:00:00 1.7 6 Norte 10 Noroeste 0 -- -- 72
2017-11-17 09:00:00 0.6 4 Norte 7 Noroeste 0 -- -- 77
2017-11-17 08:00:00 -1.7 5 Norte 7 Nordeste 0 -- -- 88
2017-11-17 07:00:00 0.3 3 Noroeste 10 Norte 0 -- -- 81
2017-11-17 06:00:00 -2.1 6 Norte 10 Noroeste 0 -- -- 94
2017-11-17 05:00:00 -2.1 6 Norte 10 Norte 0 -- -- 95
2017-11-17 04:00:00 -1.8 7 Norte 10 Norte 0 -- -- 95
2017-11-17 03:00:00 -1.3 6 Norte 9 Norte 0 -- -- 93
2017-11-17 02:00:00 -1.1 5 Norte 9 Nordeste 0 -- -- 92
2017-11-17 01:00:00 -0.9 6 Norte 8 Norte 0 -- -- 90
2017-11-17 00:00:00 0.2 5 Norte 9 Norte 0 -- -- 87
2017-11-16 23:00:00 0.7 7 Norte 11 Norte 0 -- -- 85
2017-11-16 22:00:00 1.5 6 Norte 8 Norte 0 -- -- 81
2017-11-16 21:00:00 3.1 6 Norte 7 Norte 0 -- -- 75
2017-11-16 20:00:00 4.7 4 Norte 5 Norte 0 -- -- 68
2017-11-16 19:00:00 7.8 3 Sudeste 15 Sur 0 -- -- 56
2017-11-16 18:00:00 9.6 11 Sur 34 Sur 0 -- -- 48
2017-11-16 17:00:00 11.4 25 Sur 39 Sur 0 -- -- 43
2017-11-16 16:00:00 14.1 31 Sur 39 Sur 0 -- -- 34
2017-11-16 15:00:00 15.6 26 Sur 36 Sudeste 0 -- -- 30
2017-11-16 14:00:00 16 13 Sur 24 Sur 0 -- -- 31
2017-11-16 13:00:00 14.1 3 Nordeste 6 Nordeste 0 -- -- 34
2017-11-16 12:00:00 9.7 4 Norte 9 Norte 0 -- -- 45
2017-11-16 11:00:00 6 4 Norte 11 Norte 0 -- -- 56
2017-11-16 10:00:00 0.4 4 Noroeste 8 Noroeste 0 -- -- 77
2017-11-16 09:00:00 -1.2 3 Norte 6 Norte 0 -- -- 84
2017-11-16 08:00:00 -2.6 4 Norte 5 Norte 0 -- -- 92
2017-11-16 07:00:00 -1.9 3 Norte 8 Noroeste 0 -- -- 87
2017-11-16 06:00:00 -2.6 5 Norte 8 Noroeste 0 -- -- 94
2017-11-16 05:00:00 -2.1 4 Norte 5 Norte 0 -- -- 94
2017-11-16 04:00:00 -1.9 5 Norte 8 Norte 0 -- -- 98
2017-11-16 03:00:00 -1.6 4 Norte 6 Norte 0 -- -- 95
2017-11-16 02:00:00 -1 5 Norte 6 Norte 0 -- -- 93
2017-11-16 01:00:00 -0.7 5 Nordeste 6 Norte 0 -- -- 92
2017-11-16 00:00:00 0.3 4 Norte 5 Norte 0 -- -- 88
2017-11-15 23:00:00 1.5 4 Norte 6 Norte 0 -- -- 81
2017-11-15 22:00:00 1.6 3 Norte 7 Nordeste 0 -- -- 82
2017-11-15 21:00:00 2.7 3 Norte 6 Norte 0 -- -- 76
2017-11-15 20:00:00 4.5 0 Calma 12 Sur 0 -- -- 70
2017-11-15 19:00:00 6.2 9 Sur 26 Sur 0 -- -- 65
2017-11-15 18:00:00 7.6 20 Sur 39 Sur 0 -- -- 59
2017-11-15 17:00:00 8.9 31 Sur 49 Sur 0 -- -- 53
2017-11-15 16:00:00 11.5 40 Sur 51 Sur 0 -- -- 43
2017-11-15 15:00:00 12.8 35 Sur 46 Sur 0 -- -- 38
2017-11-15 14:00:00 13 32 Sur 42 Sur 0 -- -- 31
2017-11-15 13:00:00 14.3 4 Sudeste 10 Sudeste 0 -- -- 23
2017-11-15 12:00:00 11.4 0 Calma 9 Nordeste 0 -- -- 26
2017-11-15 11:00:00 6.4 5 Nordeste 13 Norte 0 -- -- 34
2017-11-15 10:00:00 0.9 7 Norte 12 Noroeste 0 -- -- 45
2017-11-15 09:00:00 -2.5 6 Norte 10 Norte 0 -- -- 62
2017-11-15 08:00:00 -2.3 3 Norte 8 Norte 0 -- -- 59
2017-11-15 07:00:00 -2.2 6 Norte 9 Nordeste 0 -- -- 56
2017-11-15 06:00:00 -1 4 Noroeste 12 Nordeste 0 -- -- 50
2017-11-15 05:00:00 -2.8 5 Norte 14 Norte 0 -- -- 63
2017-11-15 04:00:00 -3.4 8 Norte 12 Norte 0 -- -- 75
2017-11-15 03:00:00 -2.4 8 Norte 11 Norte 0 -- -- 66
2017-11-15 02:00:00 -2.1 5 Norte 8 Nordeste 0 -- -- 68
2017-11-15 01:00:00 -1.4 4 Norte 8 Norte 0 -- -- 66
2017-11-15 00:00:00 -2 6 Norte 9 Norte 0 -- -- 77
2017-11-14 23:00:00 -0.5 5 Norte 11 Norte 0 -- -- 76
2017-11-14 22:00:00 -0.2 8 Norte 10 Norte 0 -- -- 77
2017-11-14 21:00:00 0.9 7 Nordeste 10 Nordeste 0 -- -- 74
2017-11-14 20:00:00 2.2 0 Calma 9 Nordeste 0 -- -- 68
2017-11-14 19:00:00 4.8 8 Sur 23 Sur 0 -- -- 64
2017-11-14 18:00:00 6.4 24 Sur 57 Sur 0 -- -- 57
2017-11-14 17:00:00 7.4 45 Sur 57 Sur 0 -- -- 54
2017-11-14 16:00:00 9.2 47 Sur 59 Sur 0 -- -- 48
2017-11-14 15:00:00 10.4 40 Sur 58 Sur 0 -- -- 45
2017-11-14 14:00:00 10.3 44 Sur 53 Sur 0 -- -- 44
2017-11-14 13:00:00 9 41 Sur 49 Sur 0 -- -- 48
2017-11-14 12:00:00 7.9 32 Sur 39 Sur 0 -- -- 51
2017-11-14 11:00:00 6.3 26 Sur 33 Sur 0 -- -- 56
2017-11-14 10:00:00 1.5 19 Sur 26 Sur 0 -- -- 71
2017-11-14 09:00:00 0.6 18 Sur 24 Sur 0 -- -- 74
2017-11-14 08:00:00 3.4 2 Nordeste 16 Nordeste 0 -- -- 39
2017-11-14 07:00:00 5.3 10 Norte 18 Norte 0 -- -- 33
2017-11-14 06:00:00 4.1 9 Norte 22 Norte 0 -- -- 37
2017-11-14 05:00:00 4.5 11 Norte 23 Norte 0 -- -- 36
2017-11-14 04:00:00 4.8 10 Norte 25 Norte 0 -- -- 36
2017-11-14 03:00:00 3.3 14 Norte 19 Norte 0 -- -- 41
2017-11-14 02:00:00 4.7 9 Norte 21 Norte 0 -- -- 38
2017-11-14 01:00:00 5.9 9 Nordeste 63 Norte 0 -- -- 35
2017-11-14 00:00:00 7.2 35 Norte 55 Norte 0 -- -- 33
2017-11-13 23:00:00 6.7 28 Norte 60 Norte 0 -- -- 34
2017-11-13 22:00:00 6.5 30 Norte 58 Norte 0 -- -- 35
2017-11-13 21:00:00 6.3 24 Norte 50 Norte 0 -- -- 35
2017-11-13 20:00:00 6.6 20 Norte 43 Norte 0 -- -- 30
2017-11-13 19:00:00 7 22 Norte 69 Norte 0 -- -- 31
2017-11-13 18:00:00 7.3 24 Norte 83 Norte 0 -- -- 29
2017-11-13 17:00:00 7.9 37 Norte 89 Norte 0 -- -- 28
2017-11-13 16:00:00 8.7 37 Norte 90 Nordeste 0 -- -- 28
2017-11-13 15:00:00 9.2 52 Norte 91 Norte 0 -- -- 28
2017-11-13 14:00:00 9.5 48 Norte 80 Norte 0 -- -- 27
2017-11-13 13:00:00 9.4 48 Norte 81 Norte 0 -- -- 26
2017-11-13 12:00:00 9.8 30 Norte 73 Norte 0 -- -- 28
2017-11-13 11:00:00 9.1 36 Norte 74 Norte 0 -- -- 28
2017-11-13 10:00:00 7 33 Nordeste 72 Nordeste 0 -- -- 31
2017-11-13 09:00:00 6.6 22 Norte 51 Norte 0 -- -- 36
2017-11-13 08:00:00 7 28 Norte 57 Norte 0 -- -- 39
2017-11-13 07:00:00 7.7 28 Norte 63 Norte 0 -- -- 35
2017-11-13 06:00:00 9.1 40 Norte 63 Norte 0 -- -- 33
2017-11-13 05:00:00 10 35 Norte 67 Norte 0 -- -- 34
2017-11-13 04:00:00 10 22 Norte 64 Norte 0 -- -- 37
2017-11-13 03:00:00 9.4 33 Nordeste 49 Nordeste 0 -- -- 50
2017-11-13 02:00:00 5.1 8 Sudoeste 29 Sur 0 -- -- 99
2017-11-13 01:00:00 5.4 18 Sur 28 Sur 0 -- -- 99
2017-11-13 00:00:00 5 12 Sur 22 Sur 0 -- -- 99
2017-11-12 23:00:00 4.5 6 Sur 13 Sudoeste 0 -- -- 100
2017-11-12 22:00:00 4.8 7 Sur 9 Sudoeste 0 -- -- 99
2017-11-12 21:00:00 5.6 3 Nordeste 9 Nordeste 0 -- -- 97
2017-11-12 20:00:00 6.1 4 Nordeste 6 Norte 0 -- -- 93
2017-11-12 19:00:00 7.4 3 Nordeste 6 Sur 0 -- -- 92
2017-11-12 18:00:00 8.8 7 Sur 31 Sur 0 -- -- 87
2017-11-12 17:00:00 10.1 19 Sur 41 Sur 0 -- -- 82
2017-11-12 16:00:00 11.4 33 Sur 51 Sur 0 -- -- 76
2017-11-12 15:00:00 10.1 42 Sur 60 Sur 0 -- -- 80
2017-11-12 14:00:00 9 53 Sur 64 Sur 0 -- -- 84
2017-11-12 13:00:00 8.8 43 Sur 53 Sur 0 -- -- 83
2017-11-12 12:00:00 8.7 33 Sur 40 Sur 0 -- -- 81
2017-11-12 11:00:00 7.7 30 Sur 36 Sur 0 -- -- 87
2017-11-12 10:00:00 2.7 3 Norte 8 Norte 0 -- -- 100
2017-11-12 09:00:00 1.2 5 Norte 10 Norte 0 -- -- 100
2017-11-12 08:00:00 0.4 9 Norte 12 Norte 0 -- -- 100
2017-11-12 07:00:00 1.3 5 Norte 8 Noroeste 0 -- -- 100
2017-11-12 06:00:00 2.1 0 Calma 6 Norte 0 -- -- 100
2017-11-12 05:00:00 1.8 5 Norte 10 Norte 0 -- -- 100
2017-11-12 04:00:00 1.6 6 Norte 9 Norte 0 -- -- 100
2017-11-12 03:00:00 2.4 4 Norte 11 Norte 0 -- -- 99
2017-11-12 02:00:00 2.8 8 Norte 9 Norte 0 -- -- 98
2017-11-12 01:00:00 4.5 2 Sur 10 Sur 0 -- -- 97
2017-11-12 00:00:00 5.1 2 Sur 14 Sudeste 0 -- -- 95
2017-11-11 23:00:00 5.9 5 Sur 18 Sur 0 -- -- 93
2017-11-11 22:00:00 6.5 0 Calma 11 Sur 0 -- -- 87
2017-11-11 21:00:00 6.8 7 Sur 18 Sudoeste 0 -- -- 87
2017-11-11 20:00:00 7 4 Sudoeste 37 Sur 0 -- -- 85
2017-11-11 19:00:00 6.9 14 Sur 22 Sur 0 -- -- 87
2017-11-11 18:00:00 7 12 Sur 26 Sur 0 -- -- 86
2017-11-11 17:00:00 7.2 10 Sur 26 Sur 0 -- -- 84
2017-11-11 16:00:00 7.4 17 Sur 36 Sur 0 -- -- 81
2017-11-11 15:00:00 7 31 Sur 46 Sur 0 -- -- 83
2017-11-11 14:00:00 6.9 31 Sur 39 Sur 0 -- -- 82
2017-11-11 13:00:00 7.1 31 Sur 45 Sur 0 -- -- 80
2017-11-11 12:00:00 7.3 28 Sur 41 Sur 0 -- -- 80
2017-11-11 11:00:00 11.1 4 Nordeste 18 Norte 0 -- -- 62
2017-11-11 10:00:00 9.3 11 Norte 28 Nordeste 0 -- -- 65
2017-11-11 09:00:00 8.7 17 Norte 28 Norte 0 -- -- 66
2017-11-11 08:00:00 7.5 15 Norte 24 Norte 0 -- -- 68
2017-11-11 07:00:00 7.6 6 Norte 17 Norte 0 -- -- 66
2017-11-11 06:00:00 7.5 12 Norte 28 Norte 0 -- -- 67
2017-11-11 05:00:00 7.2 14 Norte 25 Norte 0 -- -- 67
2017-11-11 04:00:00 7.5 12 Norte 19 Norte 0 -- -- 66
2017-11-11 03:00:00 7.6 12 Norte 24 Nordeste 0 -- -- 65
2017-11-11 02:00:00 6.9 10 Norte 17 Norte 0 -- -- 67
2017-11-11 01:00:00 6.8 9 Norte 18 Norte 0 -- -- 68
2017-11-11 00:00:00 8.2 9 Norte 19 Norte 0 -- -- 62
2017-11-10 23:00:00 7.5 8 Norte 23 Norte 0 -- -- 65
2017-11-10 22:00:00 5.9 11 Norte 15 Norte 0 -- -- 76
2017-11-10 21:00:00 5.7 6 Norte 10 Norte 0 -- -- 83
2017-11-10 20:00:00 6.1 0 Calma 17 Sur 0 -- -- 82
2017-11-10 19:00:00 6.7 10 Sur 30 Sur 0 -- -- 80
2017-11-10 18:00:00 7.8 22 Sur 34 Sur 0 -- -- 76
2017-11-10 17:00:00 8.7 27 Sur 46 Sur 0 -- -- 70
2017-11-10 16:00:00 10.3 41 Sur 50 Sur 0 -- -- 62
2017-11-10 15:00:00 11 34 Sur 42 Sur 0 -- -- 55
2017-11-10 14:00:00 15.3 14 Norte 31 Norte 0 -- -- 37
2017-11-10 13:00:00 14.9 17 Norte 41 Norte 0 -- -- 34
2017-11-10 12:00:00 14.7 20 Nordeste 33 Nordeste 0 -- -- 32
2017-11-10 11:00:00 12.5 16 Norte 33 Nordeste 0 -- -- 37
2017-11-10 10:00:00 6.4 15 Nordeste 28 Nordeste 0 -- -- 55
2017-11-10 09:00:00 5.2 22 Nordeste 33 Nordeste 0 -- -- 57
2017-11-10 08:00:00 5.1 21 Nordeste 26 Norte 0 -- -- 58
2017-11-10 07:00:00 4.9 13 Nordeste 22 Norte 0 -- -- 59
2017-11-10 06:00:00 5.8 11 Norte 30 Norte 0 -- -- 54
2017-11-10 05:00:00 7.7 20 Nordeste 34 Nordeste 0 -- -- 48
2017-11-10 04:00:00 4.1 5 Nordeste 18 Nordeste 0 -- -- 68
2017-11-10 03:00:00 2.9 10 Sur 21 Sur 0 -- -- 83
2017-11-10 02:00:00 3.6 9 Sur 12 Sur 0 -- -- 73
2017-11-10 01:00:00 4.7 6 Sur 10 Sur 0 -- -- 65
2017-11-10 00:00:00 5.8 5 Sur 21 Norte 0 -- -- 58
2017-11-09 23:00:00 8 9 Norte 41 Norte 0 -- -- 44
2017-11-09 22:00:00 9.4 20 Norte 40 Norte 0 -- -- 41
2017-11-09 21:00:00 9 14 Norte 43 Nordeste 0 -- -- 44
2017-11-09 20:00:00 7.7 16 Norte 32 Nordeste 0 -- -- 50
2017-11-09 19:00:00 8.7 21 Nordeste 37 Norte 0 -- -- 49
2017-11-09 18:00:00 9.1 20 Norte 51 Norte 0 -- -- 48
2017-11-09 17:00:00 10.3 30 Nordeste 50 Norte 0 -- -- 46
2017-11-09 16:00:00 10.6 12 Sur 33 Sur 0 -- -- 62
2017-11-09 15:00:00 9.3 21 Sur 40 Sur 0 -- -- 66
2017-11-09 14:00:00 9.4 31 Sur 41 Sur 0 -- -- 66
2017-11-09 13:00:00 6.6 27 Sur 36 Sur 0 -- -- 72
2017-11-09 12:00:00 7.6 26 Sur 33 Sur 0 -- -- 70
2017-11-09 11:00:00 8 13 Sur 19 Sur 0 -- -- 68
2017-11-09 10:00:00 1.3 0 Calma 4 Sudeste 0 -- -- 96
2017-11-09 09:00:00 0.2 0 Calma 5 Sur 0 -- -- 96
2017-11-09 08:00:00 0.1 0 Calma 4 Norte 0 -- -- 97
2017-11-09 07:00:00 1.1 4 Sur 17 Sur 0 -- -- 96
2017-11-09 06:00:00 1.6 12 Sur 24 Sur 0 -- -- 96
2017-11-09 05:00:00 1.5 20 Sur 28 Sur 0 -- -- 96
2017-11-09 04:00:00 1.5 21 Sur 28 Sur 0 -- -- 95
2017-11-09 03:00:00 1.3 10 Sur 13 Sur 0 -- -- 90
2017-11-09 02:00:00 1.5 2 Sudeste 9 Nordeste 0 -- -- 67
2017-11-09 01:00:00 2 5 Nordeste 13 Nordeste 0 -- -- 67
2017-11-09 00:00:00 3.5 5 Nordeste 14 Noroeste 0 -- -- 58
2017-11-08 23:00:00 3.2 2 Nordeste 11 Norte 0 -- -- 67
2017-11-08 22:00:00 2.6 4 Norte 9 Norte 0 -- -- 80
2017-11-08 21:00:00 2.4 4 Nordeste 9 Nordeste 0 -- -- 88
2017-11-08 20:00:00 2.9 7 Norte 11 Nordeste 0 -- -- 87
2017-11-08 19:00:00 5.4 4 Sur 13 Sur 0 -- -- 73
2017-11-08 18:00:00 6.9 13 Sur 37 Sur 0 -- -- 66
2017-11-08 17:00:00 8 27 Sur 41 Sur 0 -- -- 61
2017-11-08 16:00:00 8.4 27 Sur 43 Sur 0.6 -- -- 66
2017-11-08 15:00:00 8.6 34 Sur 47 Sur 0 -- -- 59
2017-11-08 14:00:00 8.6 38 Sur 51 Sur 0 -- -- 57
2017-11-08 13:00:00 9.1 33 Sur 45 Sur 0 -- -- 54
2017-11-08 12:00:00 10.1 29 Sur 35 Sur 0 -- -- 51
2017-11-08 11:00:00 8.1 3 Nordeste 5 Nordeste 0 -- -- 49
2017-11-08 10:00:00 0.9 4 Norte 7 Norte 0 -- -- 83
2017-11-08 09:00:00 -1.6 5 Norte 8 Norte 0 -- -- 95
2017-11-08 08:00:00 -2.3 5 Norte 6 Nordeste 0 -- -- 95
2017-11-08 07:00:00 -2.5 4 Norte 7 Norte 0 -- -- 97
2017-11-08 06:00:00 -1.7 5 Norte 9 Norte 0 -- -- 96
2017-11-08 05:00:00 -2.4 5 Norte 9 Norte 0 -- -- 97
2017-11-08 04:00:00 -2.4 6 Norte 8 Nordeste 0 -- -- 96
2017-11-08 03:00:00 -1.7 4 Norte 9 Norte 0 -- -- 93
2017-11-08 02:00:00 -1.6 6 Norte 8 Norte 0 -- -- 94
2017-11-08 01:00:00 -0.4 2 Norte 8 Nordeste 0 -- -- 92
2017-11-08 00:00:00 0.1 2 Norte 9 Norte 0 -- -- 87
2017-11-07 23:00:00 0.8 3 Nordeste 6 Nordeste 0 -- -- 84
2017-11-07 22:00:00 1.2 3 Norte 6 Norte 0 -- -- 85
2017-11-07 21:00:00 2.3 3 Nordeste 5 Nordeste 0 -- -- 80
2017-11-07 20:00:00 3.7 0 Calma 10 Norte 0 -- -- 73
2017-11-07 19:00:00 5.3 3 Nordeste 23 Sur 0 -- -- 65
2017-11-07 18:00:00 7.4 15 Sur 41 Sur 0 -- -- 53
2017-11-07 17:00:00 8.4 30 Sur 43 Sur 0 -- -- 50
2017-11-07 16:00:00 10.3 35 Sur 49 Sur 0 -- -- 48
2017-11-07 15:00:00 10.4 42 Sur 52 Sudeste 0 -- -- 49
2017-11-07 14:00:00 10.4 38 Sur 55 Sur 0 -- -- 48
2017-11-07 13:00:00 9.4 44 Sur 55 Sur 0 -- -- 50
2017-11-07 12:00:00 9.2 31 Sur 41 Sur 0 -- -- 49
2017-11-07 11:00:00 10.1 5 Nordeste 10 Norte 0 -- -- 31
2017-11-07 10:00:00 5 7 Norte 16 Este 0 -- -- 44
2017-11-07 09:00:00 0.1 3 Noroeste 9 Norte 0 -- -- 57
2017-11-07 08:00:00 -0.1 5 Norte 10 Norte 0 -- -- 56
2017-11-07 07:00:00 -0.7 6 Norte 10 Norte 0 -- -- 62
2017-11-07 06:00:00 -0.5 8 Norte 14 Norte 0 -- -- 57
2017-11-07 05:00:00 1.7 4 Norte 15 Nordeste 0 -- -- 46
2017-11-07 04:00:00 1.9 7 Nordeste 16 Norte 0 -- -- 46
2017-11-07 03:00:00 4.1 8 Norte 21 Norte 0 -- -- 36
2017-11-07 02:00:00 4.4 9 Norte 19 Noroeste 0 -- -- 35
2017-11-07 01:00:00 5.2 5 Nordeste 22 Norte 0 -- -- 33
2017-11-07 00:00:00 5.2 12 Norte 31 Norte 0 -- -- 37
2017-11-06 23:00:00 6.3 22 Norte 48 Nordeste 0 -- -- 37
2017-11-06 22:00:00 6.1 22 Norte 53 Norte 0 -- -- 38
2017-11-06 21:00:00 6.6 32 Norte 53 Norte 0 -- -- 36
2017-11-06 20:00:00 6.4 15 Norte 52 Nordeste 0 -- -- 37
2017-11-06 19:00:00 7.4 42 Norte 69 Norte 0 -- -- 31
2017-11-06 18:00:00 7.5 33 Norte 68 Norte 0 -- -- 32
2017-11-06 17:00:00 8.3 49 Norte 91 Norte 0 -- -- 30
2017-11-06 16:00:00 9.5 48 Norte 91 Norte 0 -- -- 30
2017-11-06 15:00:00 9.7 34 Norte 85 Norte 0 -- -- 33
2017-11-06 14:00:00 9.8 39 Norte 89 Norte 0 -- -- 36
2017-11-06 13:00:00 10 37 Norte 74 Nordeste 0 -- -- 34
2017-11-06 12:00:00 10.2 32 Norte 60 Nordeste 0 -- -- 39
2017-11-06 11:00:00 8.4 36 Nordeste 58 Nordeste 0 -- -- 48
2017-11-06 10:00:00 8.6 17 Nordeste 49 Nordeste 0 -- -- 48
2017-11-06 09:00:00 6.5 26 Nordeste 63 Norte 0 -- -- 48
2017-11-06 08:00:00 6.3 28 Norte 81 Nordeste 0 -- -- 43
2017-11-06 07:00:00 6.4 44 Norte 80 Nordeste 0 -- -- 44
2017-11-06 06:00:00 6.5 49 Norte 78 Nordeste 0 -- -- 47
2017-11-06 05:00:00 6.4 48 Norte 84 Nordeste 0 -- -- 52
2017-11-06 04:00:00 6.3 50 Norte 88 Norte 0 -- -- 54
2017-11-06 03:00:00 7 34 Nordeste 55 Norte 0 -- -- 48
2017-11-06 02:00:00 6.8 28 Nordeste 45 Nordeste 0 -- -- 53
2017-11-06 01:00:00 6.5 20 Norte 41 Norte 0 -- -- 57
2017-11-06 00:00:00 6.1 22 Norte 41 Norte 0 -- -- 69
2017-11-05 23:00:00 7.4 33 Nordeste 53 Norte 0 -- -- 66
2017-11-05 22:00:00 8.1 21 Norte 52 Norte 0 -- -- 60
2017-11-05 21:00:00 8.3 7 Norte 28 Norte 0 -- -- 56
2017-11-05 20:00:00 10 15 Norte 29 Norte 0 -- -- 48
2017-11-05 19:00:00 9.8 8 Norte 20 Norte 0 -- -- 46
2017-11-05 18:00:00 11.4 17 Nordeste 34 Norte 0 -- -- 41
2017-11-05 17:00:00 13 21 Norte 36 Nordeste 0 -- -- 38
2017-11-05 16:00:00 15.4 27 Norte 44 Norte 0 -- -- 34
2017-11-05 15:00:00 16.3 19 Nordeste 40 Norte 0 -- -- 33
2017-11-05 14:00:00 16.6 21 Norte 49 Nordeste 0 -- -- 35
2017-11-05 13:00:00 16 26 Nordeste 57 Norte 0 -- -- 33
2017-11-05 12:00:00 15.6 28 Nordeste 46 Nordeste 0 -- -- 38
2017-11-05 11:00:00 14.5 21 Nordeste 51 Norte 0 -- -- 43
2017-11-05 10:00:00 11.4 33 Norte 57 Norte 0.2 -- -- 64
2017-11-05 09:00:00 6.8 4 Norte 8 Norte 0 -- -- 100
2017-11-05 08:00:00 6.6 2 Nordeste 6 Nordeste 0 -- -- 100
2017-11-05 07:00:00 6.9 2 Noroeste 6 Noroeste 0 -- -- 100
2017-11-05 06:00:00 6.8 4 Norte 9 Nordeste 0 -- -- 100
2017-11-05 05:00:00 7.6 4 Norte 6 Norte 0 -- -- 100
2017-11-05 04:00:00 7.7 3 Norte 9 Norte 0 -- -- 100
2017-11-05 03:00:00 7.8 4 Norte 8 Noroeste 0 -- -- 100
2017-11-05 02:00:00 8.2 3 Norte 6 Nordeste 0 -- -- 100
2017-11-05 01:00:00 8.1 3 Nordeste 6 Noroeste 0 -- -- 100
2017-11-05 00:00:00 8.2 5 Norte 8 Norte 0 -- -- 100
2017-11-04 23:00:00 8.9 3 Norte 8 Norte 0 -- -- 100
2017-11-04 22:00:00 9.1 6 Norte 9 Norte 0.2 -- -- 100
2017-11-04 21:00:00 9.5 5 Norte 12 Norte 0 -- -- 100
2017-11-04 20:00:00 9.7 6 Nordeste 9 Norte 0 -- -- 100
2017-11-04 19:00:00 10.2 5 Norte 12 Norte 0 -- -- 100
2017-11-04 18:00:00 10.5 7 Norte 13 Noroeste 0 -- -- 100
2017-11-04 17:00:00 10.9 5 Nordeste 19 Oeste 1.8 -- -- 99
2017-11-04 16:00:00 10.5 10 Noroeste 19 Norte 4.2 -- -- 100
2017-11-04 15:00:00 10.3 2 Sudeste 9 Norte 6.8 -- -- 99
2017-11-04 14:00:00 10.6 3 Noroeste 8 Norte 0.6 -- -- 98
2017-11-04 13:00:00 11.3 3 Norte 9 Norte 0 -- -- 97
2017-11-04 12:00:00 10.7 0 Calma 5 Nordeste 0.4 -- -- 99
2017-11-04 11:00:00 9 4 Nordeste 12 Noroeste 1.6 -- -- 99
2017-11-04 10:00:00 8.6 0 Calma 10 Sudoeste 2.8 -- -- 99
2017-11-04 09:00:00 8.1 2 Norte 9 Norte 0.6 -- -- 99
2017-11-04 08:00:00 7.8 4 Nordeste 8 Norte 0.2 -- -- 98
2017-11-04 07:00:00 7.7 3 Norte 8 Norte 0 -- -- 97
2017-11-04 06:00:00 7.3 5 Norte 10 Norte 0 -- -- 99
2017-11-04 05:00:00 7.5 5 Norte 7 Norte 0 -- -- 98
2017-11-04 04:00:00 7.7 4 Norte 9 Noroeste 0 -- -- 99
2017-11-04 03:00:00 7.7 6 Norte 9 Noroeste 0 -- -- 99
2017-11-04 02:00:00 7.7 5 Norte 8 Norte 0 -- -- 99
2017-11-04 01:00:00 7.7 5 Norte 8 Norte 0 -- -- 98
2017-11-04 00:00:00 8.3 6 Norte 8 Norte 0 -- -- 97
2017-11-03 23:00:00 9.4 3 Nordeste 6 Nordeste 0 -- -- 96
2017-11-03 22:00:00 10.8 3 Norte 7 Nordeste 0 -- -- 92
2017-11-03 21:00:00 11.4 4 Norte 8 Nordeste 0 -- -- 90
2017-11-03 20:00:00 12.5 4 Norte 6 Norte 0 -- -- 84
2017-11-03 19:00:00 14.9 4 Sur 13 Sur 0 -- -- 74
2017-11-03 18:00:00 16.2 9 Sur 23 Sur 0 -- -- 68
2017-11-03 17:00:00 17.7 17 Sur 27 Sur 0 -- -- 61
2017-11-03 16:00:00 20.1 21 Sur 30 Sur 0 -- -- 52
2017-11-03 15:00:00 19.3 22 Sur 30 Sur 0 -- -- 55
2017-11-03 14:00:00 21.3 7 Sur 15 Sudeste 0 -- -- 49
2017-11-03 13:00:00 19.6 3 Nordeste 6 Norte 0 -- -- 49
2017-11-03 12:00:00 16.9 3 Nordeste 9 Nordeste 0 -- -- 59
2017-11-03 11:00:00 13.7 6 Norte 10 Nordeste 0 -- -- 69
2017-11-03 10:00:00 11.3 4 Norte 8 Norte 0 -- -- 82
2017-11-03 09:00:00 6.9 4 Norte 11 Noroeste 0.2 -- -- 99
2017-11-03 08:00:00 6.6 4 Norte 12 Nordeste 0 -- -- 100
2017-11-03 07:00:00 6.6 7 Norte 15 Nordeste 0 -- -- 100
2017-11-03 06:00:00 6.6 6 Norte 10 Norte 0 -- -- 100
2017-11-03 05:00:00 6.8 4 Norte 10 Norte 0 -- -- 100
2017-11-03 04:00:00 6.8 6 Norte 11 Norte 0 -- -- 100
2017-11-03 03:00:00 7.3 6 Norte 9 Norte 0 -- -- 100
2017-11-03 02:00:00 7.1 6 Norte 9 Norte 0 -- -- 100
2017-11-03 01:00:00 7.7 5 Norte 8 Nordeste 0 -- -- 100
2017-11-03 00:00:00 8.1 4 Norte 8 Norte 0 -- -- 99
2017-11-02 23:00:00 9 4 Norte 8 Norte 0 -- -- 99
2017-11-02 22:00:00 9.7 2 Norte 6 Norte 0 -- -- 97
2017-11-02 21:00:00 11.1 3 Norte 6 Norte 0 -- -- 94
2017-11-02 20:00:00 11.5 4 Norte 6 Norte 0 -- -- 92
2017-11-02 19:00:00 12.8 3 Este 5 Nordeste 0 -- -- 86
2017-11-02 18:00:00 14.8 3 Nordeste 19 Sur 0 -- -- 77
2017-11-02 17:00:00 16 10 Sur 21 Sur 0 -- -- 72
2017-11-02 16:00:00 17.4 13 Sur 23 Sur 0 -- -- 65
2017-11-02 15:00:00 17.8 7 Sur 17 Sur 0 -- -- 60
2017-11-02 14:00:00 16.8 2 Nordeste 5 Nordeste 0 -- -- 57
2017-11-02 13:00:00 15 3 Norte 6 Norte 0 -- -- 65
2017-11-02 12:00:00 13.4 4 Norte 8 Nordeste 0 -- -- 71
2017-11-02 11:00:00 9.9 4 Norte 6 Nordeste 0 -- -- 87
2017-11-02 10:00:00 8.6 3 Norte 6 Norte 0 -- -- 97
2017-11-02 09:00:00 5.5 4 Norte 8 Norte 0 -- -- 100
2017-11-02 08:00:00 5.4 3 Norte 8 Norte 0 -- -- 100
2017-11-02 07:00:00 4.7 4 Norte 8 Norte 0 -- -- 100
2017-11-02 06:00:00 4.6 4 Norte 8 Norte 0 -- -- 100
2017-11-02 05:00:00 5.4 5 Norte 9 Noroeste 0 -- -- 100
2017-11-02 04:00:00 5.4 5 Norte 8 Noroeste 0 -- -- 100
2017-11-02 03:00:00 6.1 6 Norte 11 Norte 0 -- -- 100
2017-11-02 02:00:00 6.6 5 Norte 7 Norte 0 -- -- 99
2017-11-02 01:00:00 7 7 Norte 9 Noroeste 0 -- -- 100
2017-11-02 00:00:00 7.6 3 Nordeste 5 Norte 0 -- -- 98
2017-11-01 23:00:00 8.1 4 Nordeste 5 Nordeste 0 -- -- 96
2017-11-01 22:00:00 9 3 Nordeste 5 Sur 0 -- -- 94
2017-11-01 21:00:00 10.5 5 Sur 8 Sudoeste 0 -- -- 90
2017-11-01 20:00:00 11.6 0 Calma 4 Norte 0 -- -- 84
2017-11-01 19:00:00 12.8 0 Calma 15 Sur 0 -- -- 79
2017-11-01 18:00:00 13.9 12 Sur 27 Sur 0 -- -- 76
2017-11-01 17:00:00 15.6 21 Sudeste 28 Sudeste 0 -- -- 68
2017-11-01 16:00:00 17.9 23 Sur 32 Sur 0 -- -- 60
2017-11-01 15:00:00 18.5 27 Sur 38 Sur 0 -- -- 58
2017-11-01 14:00:00 18.6 27 Sur 35 Sur 0 -- -- 56
2017-11-01 13:00:00 18.5 3 Nordeste 6 Nordeste 0 -- -- 49
2017-11-01 12:00:00 15.4 3 Norte 9 Nordeste 0 -- -- 59
2017-11-01 11:00:00 12.9 2 Nordeste 7 Nordeste 0 -- -- 69
2017-11-01 10:00:00 7.6 3 Norte 6 Norte 0 -- -- 97
2017-11-01 09:00:00 4.1 3 Noroeste 6 Norte 0 -- -- 100
2017-11-01 08:00:00 3.1 4 Norte 6 Norte 0 -- -- 100
2017-11-01 07:00:00 3.4 4 Norte 7 Norte 0 -- -- 100
2017-11-01 06:00:00 3.6 5 Norte 7 Norte 0 -- -- 100
2017-11-01 05:00:00 4.2 4 Norte 8 Norte 0 -- -- 100
2017-11-01 04:00:00 3.9 4 Norte 7 Norte 0 -- -- 100
2017-11-01 03:00:00 3.7 6 Norte 8 Norte 0 -- -- 100
2017-11-01 02:00:00 4.8 4 Norte 6 Norte 0 -- -- 100
2017-11-01 01:00:00 5 5 Nordeste 7 Norte 0 -- -- 99
2017-11-01 00:00:00 5.5 5 Norte 5 Norte 0 -- -- 98
2017-10-31 23:00:00 6.3 3 Norte 7 Norte 0 -- -- 98
2017-10-31 22:00:00 6.9 5 Norte 6 Norte 0 -- -- 94
2017-10-31 21:00:00 7.9 4 Norte 6 Norte 0 -- -- 90
2017-10-31 20:00:00 10.1 2 Este 14 Sur 0 -- -- 81
2017-10-31 19:00:00 11.4 9 Sur 26 Sur 0 -- -- 75
2017-10-31 18:00:00 12.9 23 Sur 33 Sur 0 -- -- 70
2017-10-31 17:00:00 13.9 24 Sur 35 Sur 0 -- -- 65
2017-10-31 16:00:00 16.2 27 Sur 40 Sur 0 -- -- 59
2017-10-31 15:00:00 16.8 31 Sur 41 Sur 0 -- -- 56
2017-10-31 14:00:00 16.5 33 Sur 44 Sur 0 -- -- 59
2017-10-31 13:00:00 16 31 Sur 41 Sur 0 -- -- 60
2017-10-31 12:00:00 15.6 18 Sur 25 Sur 0 -- -- 58
2017-10-31 11:00:00 14.6 4 Nordeste 7 Este 0 -- -- 56
2017-10-31 10:00:00 11.3 4 Nordeste 7 Nordeste 0 -- -- 68
2017-10-31 09:00:00 4.4 4 Norte 6 Nordeste 0 -- -- 99
2017-10-31 08:00:00 4.8 3 Norte 5 Nordeste 0 -- -- 99
2017-10-31 07:00:00 4.8 3 Norte 5 Nordeste 0 -- -- 98
2017-10-31 06:00:00 5.7 3 Nordeste 4 Nordeste 0 -- -- 98
2017-10-31 05:00:00 6.9 3 Norte 6 Norte 0 -- -- 95
2017-10-31 04:00:00 6.8 3 Norte 6 Nordeste 0 -- -- 99
2017-10-31 03:00:00 7.4 4 Norte 8 Noroeste 0 -- -- 97
2017-10-31 02:00:00 7 4 Norte 8 Norte 0 -- -- 98
2017-10-31 01:00:00 7.1 5 Nordeste 6 Norte 0 -- -- 97
2017-10-31 00:00:00 6.8 4 Norte 6 Norte 0 -- -- 98
2017-10-30 23:00:00 8.1 0 Calma 4 Nordeste 0 -- -- 96
2017-10-30 22:00:00 8.8 2 Sur 5 Sur 0 -- -- 94
2017-10-30 21:00:00 9.4 2 Nordeste 5 Norte 0 -- -- 88
2017-10-30 20:00:00 10.6 3 Sudeste 20 Sur 0 -- -- 84
2017-10-30 19:00:00 12 18 Sur 32 Sur 0 -- -- 79
2017-10-30 18:00:00 13.4 22 Sur 43 Sur 0 -- -- 73
2017-10-30 17:00:00 13.9 30 Sur 54 Sur 0 -- -- 70
2017-10-30 16:00:00 15.1 42 Sur 57 Sur 0 -- -- 66
2017-10-30 15:00:00 15 39 Sur 55 Sur 0 -- -- 66
2017-10-30 14:00:00 14.3 45 Sur 57 Sur 0 -- -- 70
2017-10-30 13:00:00 14.2 35 Sur 51 Sur 0 -- -- 70
2017-10-30 12:00:00 12.4 38 Sur 48 Sur 0 -- -- 76
2017-10-30 11:00:00 11.4 27 Sur 37 Sur 0 -- -- 81
2017-10-30 10:00:00 7.7 11 Sur 23 Sur 0 -- -- 99
2017-10-30 09:00:00 4.6 2 Sur 5 Sur 0 -- -- 100
2017-10-30 08:00:00 4.2 2 Norte 15 Sur 0 -- -- 99
2017-10-30 07:00:00 5 4 Sur 21 Sur 0 -- -- 100
2017-10-30 06:00:00 4.5 3 Norte 6 Norte 0 -- -- 100
2017-10-30 05:00:00 4.2 4 Norte 5 Nordeste 0 -- -- 99
2017-10-30 04:00:00 5.7 3 Sudoeste 16 Sur 0 -- -- 99
2017-10-30 03:00:00 6.3 12 Sur 23 Sur 0 -- -- 98
2017-10-30 02:00:00 6.7 9 Sur 17 Sur 0 -- -- 99
2017-10-30 01:00:00 6.9 4 Sudoeste 15 Sur 0 -- -- 97
2017-10-30 00:00:00 7.5 6 Sur 15 Sur 0 -- -- 96
2017-10-29 23:00:00 7.1 3 Norte 9 Nordeste 0 -- -- 97
2017-10-29 22:00:00 7.1 7 Norte 9 Norte 0 -- -- 96
2017-10-29 21:00:00 8.3 4 Norte 6 Norte 0 -- -- 92
2017-10-29 20:00:00 10.6 2 Sudoeste 12 Sur 0 -- -- 84
2017-10-29 19:00:00 11.9 10 Sur 31 Sur 0 -- -- 78
2017-10-29 18:00:00 13.4 26 Sur 39 Sur 0 -- -- 74
2017-10-29 17:00:00 14.3 30 Sur 44 Sur 0 -- -- 70
2017-10-29 16:00:00 16.3 35 Sur 50 Sur 0 -- -- 63
2017-10-29 15:00:00 16.1 40 Sur 51 Sur 0 -- -- 61
2017-10-29 14:00:00 15.5 39 Sur 48 Sur 0 -- -- 62
2017-10-29 13:00:00 15 35 Sur 44 Sur 0 -- -- 63
2017-10-29 12:00:00 14.7 30 Sur 37 Sur 0 -- -- 58
2017-10-29 11:00:00 13.4 11 Sur 17 Sur 0 -- -- 45
2017-10-29 10:00:00 9.3 5 Norte 10 Norte 0 -- -- 53
2017-10-29 09:00:00 2.4 5 Nordeste 8 Nordeste 0 -- -- 78
2017-10-29 08:00:00 3 0 Calma 5 Nordeste 0 -- -- 73
2017-10-29 07:00:00 4.7 0 Calma 9 Norte 0 -- -- 66
2017-10-29 06:00:00 5.2 4 Noroeste 9 Norte 0 -- -- 68
2017-10-29 05:00:00 7.3 3 Norte 9 Norte 0 -- -- 57
2017-10-29 04:00:00 6.1 0 Calma 11 Norte 0 -- -- 75
2017-10-29 03:00:00 5.7 5 Norte 9 Norte 0 -- -- 95
2017-10-29 02:00:00 6.6 5 Norte 8 Norte 0 -- -- 98
2017-10-29 01:00:00 7.5 5 Norte 10 Norte 0 -- -- 97
2017-10-29 00:00:00 7.9 8 Nordeste 9 Nordeste 0 -- -- 97
2017-10-28 23:00:00 8.8 5 Norte 9 Norte 0 -- -- 96
2017-10-28 22:00:00 10 3 Norte 5 Norte 0 -- -- 93
2017-10-28 21:00:00 11.4 3 Nordeste 11 Sur 0 -- -- 87
2017-10-28 20:00:00 13.9 8 Sur 36 Sur 0 -- -- 78
2017-10-28 19:00:00 15.4 30 Sur 44 Sur 0 -- -- 73
2017-10-28 18:00:00 16.2 35 Sur 48 Sur 0 -- -- 69
2017-10-28 17:00:00 18.1 41 Sur 51 Sur 0 -- -- 62
2017-10-28 16:00:00 18.7 42 Sur 53 Sur 0 -- -- 61
2017-10-28 15:00:00 18.7 44 Sur 53 Sur 0 -- -- 59
2017-10-28 14:00:00 18.4 37 Sur 46 Sur 0 -- -- 58
2017-10-28 13:00:00 16.6 37 Sur 43 Sur 0 -- -- 63
2017-10-28 12:00:00 15.3 23 Sur 30 Sur 0 -- -- 68
2017-10-28 11:00:00 13.4 14 Sur 22 Sur 0 -- -- 75
2017-10-28 10:00:00 13.5 5 Nordeste 24 Norte 0 -- -- 48
2017-10-28 09:00:00 12.8 15 Norte 28 Norte 0 -- -- 53
2017-10-28 08:00:00 12.9 17 Norte 31 Norte 0 -- -- 54
2017-10-28 07:00:00 14.1 20 Norte 33 Norte 0 -- -- 50
2017-10-28 06:00:00 14.6 12 Norte 26 Norte 0 -- -- 50
2017-10-28 05:00:00 15.6 13 Norte 32 Norte 0 -- -- 48
2017-10-28 04:00:00 13.3 18 Norte 32 Norte 0 -- -- 58
2017-10-28 03:00:00 12.9 6 Nordeste 12 Norte 0 -- -- 63
2017-10-28 02:00:00 14.8 9 Norte 20 Norte 0 -- -- 55
2017-10-28 01:00:00 16.2 10 Norte 18 Norte 0 -- -- 50
2017-10-28 00:00:00 16 5 Norte 24 Nordeste 0 -- -- 50
2017-10-27 23:00:00 15.6 13 Norte 19 Norte 0 -- -- 51
2017-10-27 22:00:00 17.3 6 Norte 22 Norte 0 -- -- 45
2017-10-27 21:00:00 17 6 Noroeste 23 Norte 0 -- -- 50
2017-10-27 20:00:00 14.9 6 Norte 22 Sur 0 -- -- 80
2017-10-27 19:00:00 16.4 19 Sur 38 Sur 0 -- -- 75
2017-10-27 18:00:00 17.9 31 Sur 47 Sur 0 -- -- 69
2017-10-27 17:00:00 19.8 36 Sur 52 Sur 0 -- -- 63
2017-10-27 16:00:00 20.5 41 Sur 52 Sur 0 -- -- 60
2017-10-27 15:00:00 21.3 34 Sur 43 Sur 0 -- -- 57
2017-10-27 14:00:00 21.2 29 Sur 37 Sur 0 -- -- 55
2017-10-27 13:00:00 20.9 12 Sur 18 Sur 0 -- -- 48
2017-10-27 12:00:00 19 3 Nordeste 8 Nordeste 0 -- -- 48
2017-10-27 11:00:00 15.1 4 Norte 12 Norte 0 -- -- 63
2017-10-27 10:00:00 8.5 6 Norte 10 Norte 0 -- -- 91
2017-10-27 09:00:00 8.4 5 Norte 13 Norte 0 -- -- 91
2017-10-27 08:00:00 7.1 6 Norte 10 Norte 0 -- -- 99
2017-10-27 07:00:00 8.2 4 Norte 10 Norte 0 -- -- 95
2017-10-27 06:00:00 7.9 5 Norte 9 Norte 0 -- -- 99
2017-10-27 05:00:00 8.3 4 Norte 9 Norte 0 -- -- 96
2017-10-27 04:00:00 9.3 4 Norte 8 Norte 0 -- -- 97
2017-10-27 03:00:00 9.9 7 Norte 11 Norte 0 -- -- 95
2017-10-27 02:00:00 9.7 6 Norte 8 Norte 0 -- -- 95
2017-10-27 01:00:00 10.4 4 Norte 7 Norte 0 -- -- 94
2017-10-27 00:00:00 11.3 5 Norte 9 Norte 0 -- -- 90
2017-10-26 23:00:00 11.7 8 Norte 10 Norte 0 -- -- 91
2017-10-26 22:00:00 13 5 Nordeste 6 Norte 0 -- -- 85
2017-10-26 21:00:00 15 3 Nordeste 12 Este 0 -- -- 75
2017-10-26 20:00:00 17.8 7 Sur 30 Sur 0 -- -- 70
2017-10-26 19:00:00 19.4 24 Sur 45 Sur 0 -- -- 65
2017-10-26 18:00:00 21.5 37 Sur 47 Sur 0 -- -- 56
2017-10-26 17:00:00 23.8 38 Sur 48 Sur 0 -- -- 48
2017-10-26 16:00:00 25 28 Sur 41 Sur 0 -- -- 44
2017-10-26 15:00:00 25.6 17 Sur 27 Sudeste 0 -- -- 41
2017-10-26 14:00:00 24.8 3 Nordeste 7 Nordeste 0 -- -- 40
2017-10-26 13:00:00 21.8 5 Norte 9 Nordeste 0 -- -- 47
2017-10-26 12:00:00 19.3 5 Nordeste 8 Nordeste 0 -- -- 53
2017-10-26 11:00:00 15 4 Norte 8 Nordeste 0 -- -- 68
2017-10-26 10:00:00 9.1 3 Norte 10 Norte 0 -- -- 91
2017-10-26 09:00:00 7.5 6 Norte 10 Norte 0 -- -- 98
2017-10-26 08:00:00 7.7 5 Norte 10 Norte 0 -- -- 98
2017-10-26 07:00:00 7.9 5 Norte 10 Norte 0 -- -- 97
2017-10-26 06:00:00 8.5 5 Norte 10 Norte 0 -- -- 96
2017-10-26 05:00:00 9.7 4 Norte 9 Norte 0 -- -- 92
2017-10-26 04:00:00 8.6 5 Norte 8 Norte 0 -- -- 98
2017-10-26 03:00:00 9.5 5 Norte 8 Norte 0 -- -- 93
2017-10-26 02:00:00 10 6 Norte 10 Norte 0 -- -- 95
2017-10-26 01:00:00 11 5 Norte 9 Norte 0 -- -- 88
2017-10-26 00:00:00 10.7 7 Norte 9 Norte 0 -- -- 92
2017-10-25 23:00:00 11.4 5 Norte 9 Nordeste 0 -- -- 89
2017-10-25 22:00:00 12.5 5 Norte 6 Nordeste 0 -- -- 85
2017-10-25 21:00:00 14.9 3 Nordeste 7 Nordeste 0 -- -- 73
2017-10-25 20:00:00 16.7 4 Nordeste 16 Sur 0 -- -- 67
2017-10-25 19:00:00 20 16 Sur 32 Sur 0 -- -- 54
2017-10-25 18:00:00 22 26 Sur 36 Sur 0 -- -- 45
2017-10-25 17:00:00 24.7 28 Sur 37 Sur 0 -- -- 40
2017-10-25 16:00:00 25.5 27 Sur 35 Sur 0 -- -- 39
2017-10-25 15:00:00 26.1 4 Nordeste 9 Sudeste 0 -- -- 38
2017-10-25 14:00:00 23.8 4 Nordeste 8 Nordeste 0 -- -- 38
2017-10-25 13:00:00 20.7 4 Nordeste 10 Nordeste 0 -- -- 45
2017-10-25 12:00:00 18.1 4 Norte 9 Norte 0 -- -- 53
2017-10-25 11:00:00 14.8 5 Nordeste 11 Norte 0 -- -- 64
2017-10-25 10:00:00 8.2 5 Norte 11 Norte 0 -- -- 90
2017-10-25 09:00:00 8 5 Norte 9 Norte 0 -- -- 93
2017-10-25 08:00:00 8.1 4 Norte 9 Nordeste 0 -- -- 92
2017-10-25 07:00:00 7.5 8 Norte 13 Norte 0 -- -- 98
2017-10-25 06:00:00 9.4 4 Noroeste 11 Nordeste 0 -- -- 92
2017-10-25 05:00:00 8.9 4 Nordeste 9 Norte 0 -- -- 95
2017-10-25 04:00:00 9.3 5 Norte 8 Norte 0 -- -- 94
2017-10-25 03:00:00 8.8 6 Norte 9 Norte 0 -- -- 98
2017-10-25 02:00:00 9.7 5 Norte 8 Norte 0 -- -- 100
2017-10-25 01:00:00 9.3 7 Nordeste 10 Norte 0 -- -- 96
2017-10-25 00:00:00 10.2 6 Norte 10 Norte 0 -- -- 96